createdAt,value
2017-01-13T00:00:40.953Z,934.04
2017-01-13T00:01:51.808Z,933.97
2017-01-13T00:03:02.697Z,934.06
2017-01-13T00:04:13.976Z,934.02
2017-01-13T00:05:24.908Z,934.07
2017-01-13T00:06:35.962Z,934.09
2017-01-13T00:07:47.000Z,934.07
2017-01-13T00:08:58.363Z,934.12
2017-01-13T00:10:09.304Z,934.08
2017-01-13T00:11:20.282Z,934.09
2017-01-13T00:12:31.300Z,934.11
2017-01-13T00:13:42.287Z,934.09
2017-01-13T00:14:53.180Z,934.08
2017-01-13T00:16:04.136Z,934.1
2017-01-13T00:17:14.789Z,934.05
2017-01-13T00:19:50.615Z,934.11
2017-01-13T00:21:01.520Z,934.09
2017-01-13T00:22:12.179Z,934.07
2017-01-13T00:23:22.881Z,934.05
2017-01-13T00:24:33.492Z,934.18
2017-01-13T00:25:44.355Z,934.16
2017-01-13T00:26:55.094Z,934.16
2017-01-13T00:28:05.841Z,934.15
2017-01-13T00:29:16.480Z,934.18
2017-01-13T00:30:27.234Z,934.26
2017-01-13T00:31:38.092Z,934.24
2017-01-13T00:32:48.803Z,934.26
2017-01-13T00:33:59.582Z,934.26
2017-01-13T00:35:10.344Z,934.28
2017-01-13T00:36:21.070Z,934.25
2017-01-13T00:37:32.045Z,934.2
2017-01-13T00:38:42.793Z,934.19
2017-01-13T00:39:53.565Z,934.22
2017-01-13T00:41:04.167Z,934.28
2017-01-13T00:42:14.821Z,934.26
2017-01-13T00:43:25.608Z,934.32
2017-01-13T00:44:36.209Z,934.3
2017-01-13T00:45:46.865Z,934.32
2017-01-13T00:46:57.492Z,934.29
2017-01-13T00:48:08.152Z,934.27
2017-01-13T00:49:33.485Z,934.29
2017-01-13T00:50:44.202Z,934.27
2017-01-13T00:51:54.964Z,934.28
2017-01-13T00:53:05.692Z,934.24
2017-01-13T00:54:16.674Z,934.22
2017-01-13T00:55:27.456Z,934.26
2017-01-13T00:56:38.239Z,934.24
2017-01-13T00:58:03.386Z,934.25
2017-01-13T00:59:14.125Z,934.22
2017-01-13T01:00:25.095Z,934.22
2017-01-13T01:01:35.861Z,934.24
2017-01-13T01:02:47.209Z,934.24
2017-01-13T01:03:57.939Z,934.25
2017-01-13T01:05:08.837Z,934.2
2017-01-13T01:06:19.484Z,934.19
2017-01-13T01:07:30.260Z,934.18
2017-01-13T01:08:42.022Z,934.18
2017-01-13T01:09:52.770Z,934.25
2017-01-13T01:11:03.353Z,934.22
2017-01-13T01:12:13.934Z,934.25
2017-01-13T01:13:24.516Z,934.13
2017-01-13T01:14:35.096Z,934.18
2017-01-13T01:15:45.724Z,934.14
2017-01-13T01:17:11.023Z,934.12
2017-01-13T01:18:21.665Z,934.16
2017-01-13T01:19:32.252Z,934.15
2017-01-13T01:20:42.835Z,934.23
2017-01-13T01:21:53.792Z,934.21
2017-01-13T01:23:04.374Z,934.22
2017-01-13T01:24:14.953Z,934.2
2017-01-13T01:25:25.532Z,934.24
2017-01-13T01:26:36.111Z,934.25
2017-01-13T01:27:46.715Z,934.22
2017-01-13T01:28:57.318Z,934.24
2017-01-13T01:30:22.416Z,934.2
2017-01-13T01:31:32.995Z,934.23
2017-01-13T01:32:43.576Z,934.28
2017-01-13T01:33:54.354Z,934.26
2017-01-13T01:35:04.938Z,934.33
2017-01-13T01:36:15.521Z,934.31
2017-01-13T01:37:26.099Z,934.35
2017-01-13T01:38:36.686Z,934.39
2017-01-13T01:39:47.267Z,934.38
2017-01-13T01:40:57.897Z,934.37
2017-01-13T01:42:08.478Z,934.32
2017-01-13T01:43:19.057Z,934.34
2017-01-13T01:44:29.646Z,934.37
2017-01-13T01:45:40.233Z,934.36
2017-01-13T01:46:50.846Z,934.33
2017-01-13T01:48:01.435Z,934.35
2017-01-13T01:49:12.023Z,934.33
2017-01-13T01:50:22.613Z,934.35
2017-01-13T01:51:33.198Z,934.36
2017-01-13T01:52:43.788Z,934.38
2017-01-13T01:53:54.422Z,934.32
2017-01-13T01:55:05.098Z,934.34
2017-01-13T01:56:16.133Z,934.32
2017-01-13T01:57:26.718Z,934.34
2017-01-13T01:58:37.362Z,934.37
2017-01-13T01:59:48.317Z,934.37
2017-01-13T02:00:58.999Z,934.41
2017-01-13T02:02:10.154Z,934.36
2017-01-13T02:03:20.962Z,934.35
2017-01-13T02:04:31.790Z,934.31
2017-01-13T02:05:57.073Z,934.28
2017-01-13T02:07:07.877Z,934.3
2017-01-13T02:08:19.037Z,934.26
2017-01-13T02:09:29.848Z,934.26
2017-01-13T02:10:40.654Z,934.25
2017-01-13T02:11:51.462Z,934.23
2017-01-13T02:13:02.517Z,934.25
2017-01-13T02:14:13.324Z,934.29
2017-01-13T02:15:24.143Z,934.28
2017-01-13T02:16:34.965Z,934.3
2017-01-13T02:17:45.787Z,934.27
2017-01-13T02:18:56.973Z,934.23
2017-01-13T02:20:07.780Z,934.26
2017-01-13T02:21:18.628Z,934.3
2017-01-13T02:22:29.520Z,934.24
2017-01-13T02:25:06.659Z,934.3
2017-01-13T02:26:17.506Z,934.31
2017-01-13T02:27:28.310Z,934.3
2017-01-13T02:28:39.118Z,934.34
2017-01-13T02:29:50.272Z,934.35
2017-01-13T02:31:01.080Z,934.37
2017-01-13T02:32:11.884Z,934.36
2017-01-13T02:33:22.688Z,934.35
2017-01-13T02:34:33.490Z,934.33
2017-01-13T02:35:44.293Z,934.28
2017-01-13T02:36:55.103Z,934.29
2017-01-13T02:38:05.908Z,934.19
2017-01-13T02:39:16.717Z,934.23
2017-01-13T02:40:27.522Z,934.18
2017-01-13T02:41:38.527Z,934.19
2017-01-13T02:42:49.318Z,934.19
2017-01-13T02:43:59.903Z,934.18
2017-01-13T02:45:10.484Z,934.17
2017-01-13T02:46:21.086Z,934.15
2017-01-13T02:47:32.095Z,934.18
2017-01-13T02:48:42.904Z,934.17
2017-01-13T02:49:53.711Z,934.16
2017-01-13T02:51:04.516Z,934.16
2017-01-13T02:52:15.324Z,934.16
2017-01-13T02:53:26.129Z,934.13
2017-01-13T02:54:36.932Z,934.14
2017-01-13T02:55:47.734Z,934.06
2017-01-13T02:56:58.542Z,934
2017-01-13T02:58:09.376Z,933.94
2017-01-13T02:59:20.183Z,933.96
2017-01-13T03:00:30.990Z,933.92
2017-01-13T03:01:41.798Z,933.89
2017-01-13T03:02:52.601Z,933.87
2017-01-13T03:04:03.405Z,933.85
2017-01-13T03:05:14.215Z,933.84
2017-01-13T03:06:25.020Z,933.79
2017-01-13T03:07:35.802Z,933.79
2017-01-13T03:08:46.539Z,933.71
2017-01-13T03:09:57.354Z,933.75
2017-01-13T03:11:08.468Z,933.71
2017-01-13T03:12:19.273Z,933.72
2017-01-13T03:13:30.059Z,933.7
2017-01-13T03:14:40.792Z,933.67
2017-01-13T03:15:52.922Z,933.65
2017-01-13T03:17:03.465Z,933.65
2017-01-13T03:18:14.040Z,933.59
2017-01-13T03:19:39.261Z,933.61
2017-01-13T03:20:50.047Z,933.52
2017-01-13T03:22:00.760Z,933.48
2017-01-13T03:23:12.127Z,933.45
2017-01-13T03:24:23.009Z,933.5
2017-01-13T03:25:33.882Z,933.46
2017-01-13T03:26:44.624Z,933.43
2017-01-13T03:27:55.296Z,933.4
2017-01-13T03:29:06.071Z,933.42
2017-01-13T03:30:16.854Z,933.41
2017-01-13T03:31:27.640Z,933.45
2017-01-13T03:34:04.004Z,933.43
2017-01-13T03:35:14.912Z,933.43
2017-01-13T03:36:25.794Z,933.38
2017-01-13T03:37:36.567Z,933.34
2017-01-13T03:38:47.325Z,933.37
2017-01-13T03:39:58.090Z,933.41
2017-01-13T03:41:09.506Z,933.41
2017-01-13T03:42:20.335Z,933.39
2017-01-13T03:43:31.150Z,933.38
2017-01-13T03:44:41.963Z,933.38
2017-01-13T03:45:52.772Z,933.35
2017-01-13T03:47:03.580Z,933.36
2017-01-13T03:48:14.418Z,933.34
2017-01-13T03:49:25.224Z,933.33
2017-01-13T03:50:36.384Z,933.3
2017-01-13T03:51:47.192Z,933.27
2017-01-13T03:52:58.002Z,933.23
2017-01-13T03:54:08.814Z,933.21
2017-01-13T03:55:19.624Z,933.18
2017-01-13T03:56:30.430Z,933.18
2017-01-13T03:57:41.238Z,933.15
2017-01-13T03:58:52.048Z,933.11
2017-01-13T04:00:02.855Z,933.1
2017-01-13T04:01:13.662Z,933.1
2017-01-13T04:02:24.668Z,933.1
2017-01-13T04:03:35.473Z,933.08
2017-01-13T04:04:46.277Z,933.04
2017-01-13T04:05:57.092Z,933.08
2017-01-13T04:07:07.900Z,933.06
2017-01-13T04:08:18.705Z,933.03
2017-01-13T04:09:30.120Z,933.03
2017-01-13T04:10:40.927Z,933
2017-01-13T04:11:51.732Z,932.96
2017-01-13T04:13:02.540Z,932.92
2017-01-13T04:14:13.955Z,932.92
2017-01-13T04:15:24.761Z,932.94
2017-01-13T04:16:35.571Z,932.94
2017-01-13T04:17:46.399Z,932.92
2017-01-13T04:18:57.203Z,932.89
2017-01-13T04:20:08.209Z,932.9
2017-01-13T04:21:19.015Z,932.89
2017-01-13T04:22:29.823Z,932.92
2017-01-13T04:23:40.626Z,932.91
2017-01-13T04:24:51.434Z,932.86
2017-01-13T04:26:02.239Z,932.84
2017-01-13T04:27:13.046Z,932.82
2017-01-13T04:28:23.852Z,932.83
2017-01-13T04:29:34.654Z,932.77
2017-01-13T04:30:45.459Z,932.76
2017-01-13T04:31:56.619Z,932.73
2017-01-13T04:33:07.428Z,932.75
2017-01-13T04:34:18.232Z,932.74
2017-01-13T04:35:29.042Z,932.73
2017-01-13T04:36:39.847Z,932.69
2017-01-13T04:37:51.025Z,932.66
2017-01-13T04:39:01.836Z,932.61
2017-01-13T04:40:12.645Z,932.6
2017-01-13T04:41:23.449Z,932.59
2017-01-13T04:42:34.254Z,932.56
2017-01-13T04:43:45.260Z,932.57
2017-01-13T04:44:56.067Z,932.56
2017-01-13T04:46:06.870Z,932.54
2017-01-13T04:47:17.676Z,932.54
2017-01-13T04:48:28.481Z,932.5
2017-01-13T04:49:39.635Z,932.53
2017-01-13T04:50:50.439Z,932.47
2017-01-13T04:52:01.245Z,932.51
2017-01-13T04:53:12.073Z,932.47
2017-01-13T04:54:22.877Z,932.5
2017-01-13T04:55:33.680Z,932.51
2017-01-13T04:56:44.483Z,932.46
2017-01-13T04:57:55.291Z,932.42
2017-01-13T04:59:06.095Z,932.43
2017-01-13T05:00:16.901Z,932.39
2017-01-13T05:01:42.527Z,932.4
2017-01-13T05:02:53.332Z,932.39
2017-01-13T05:04:04.136Z,932.43
2017-01-13T05:05:14.940Z,932.42
2017-01-13T05:06:25.745Z,932.4
2017-01-13T05:07:36.929Z,932.38
2017-01-13T05:08:47.730Z,932.36
2017-01-13T05:09:58.536Z,932.36
2017-01-13T05:11:09.344Z,932.37
2017-01-13T05:12:20.149Z,932.36
2017-01-13T05:13:30.955Z,932.38
2017-01-13T05:14:41.759Z,932.37
2017-01-13T05:15:52.582Z,932.39
2017-01-13T05:17:03.386Z,932.42
2017-01-13T05:18:14.190Z,932.38
2017-01-13T05:19:25.199Z,932.35
2017-01-13T05:20:36.001Z,932.3
2017-01-13T05:21:46.812Z,932.4
2017-01-13T05:22:57.639Z,932.33
2017-01-13T05:24:08.454Z,932.3
2017-01-13T05:25:19.459Z,932.3
2017-01-13T05:26:30.268Z,932.21
2017-01-13T05:27:41.072Z,932.24
2017-01-13T05:28:51.875Z,932.21
2017-01-13T05:30:02.680Z,932.22
2017-01-13T05:31:13.846Z,932.23
2017-01-13T05:32:24.651Z,932.21
2017-01-13T05:33:35.458Z,932.2
2017-01-13T05:34:46.262Z,932.19
2017-01-13T05:35:57.068Z,932.18
2017-01-13T05:37:08.223Z,932.22
2017-01-13T05:38:19.028Z,932.24
2017-01-13T05:39:29.833Z,932.23
2017-01-13T05:40:40.634Z,932.23
2017-01-13T05:41:51.439Z,932.22
2017-01-13T05:43:02.598Z,932.16
2017-01-13T05:44:13.406Z,932.2
2017-01-13T05:45:24.221Z,932.22
2017-01-13T05:46:35.022Z,932.16
2017-01-13T05:47:45.825Z,932.18
2017-01-13T05:48:56.834Z,932.15
2017-01-13T05:50:07.640Z,932.13
2017-01-13T05:51:18.443Z,932.12
2017-01-13T05:52:29.251Z,932.11
2017-01-13T05:53:40.056Z,932.11
2017-01-13T05:54:51.065Z,932.1
2017-01-13T05:56:01.875Z,932.08
2017-01-13T05:57:41.619Z,932.08
2017-01-13T05:58:52.428Z,932.08
2017-01-13T06:00:03.584Z,932.05
2017-01-13T06:01:14.387Z,932.05
2017-01-13T06:02:25.192Z,932.08
2017-01-13T06:03:36.004Z,932.09
2017-01-13T06:04:46.828Z,932.12
2017-01-13T06:05:57.634Z,932.13
2017-01-13T06:07:08.444Z,932.08
2017-01-13T06:08:19.248Z,932.08
2017-01-13T06:09:30.058Z,932.1
2017-01-13T06:10:40.863Z,932.12
2017-01-13T06:11:51.867Z,932.1
2017-01-13T06:13:02.674Z,932.13
2017-01-13T06:14:13.483Z,932.1
2017-01-13T06:15:24.287Z,932.09
2017-01-13T06:18:00.570Z,932.06
2017-01-13T06:19:11.377Z,932.06
2017-01-13T06:20:22.184Z,932.1
2017-01-13T06:21:32.987Z,932.03
2017-01-13T06:22:43.795Z,932.06
2017-01-13T06:23:54.620Z,932.06
2017-01-13T06:25:05.432Z,932.04
2017-01-13T06:26:16.850Z,932.05
2017-01-13T06:27:27.654Z,932.03
2017-01-13T06:28:38.458Z,932.04
2017-01-13T06:29:49.259Z,932.08
2017-01-13T06:31:00.068Z,932.11
2017-01-13T06:32:10.875Z,932.1
2017-01-13T06:33:21.692Z,932.11
2017-01-13T06:34:33.309Z,932.07
2017-01-13T06:35:44.118Z,932.1
2017-01-13T06:36:54.924Z,932.07
2017-01-13T06:38:05.754Z,932.07
2017-01-13T06:39:16.558Z,932.08
2017-01-13T06:40:27.563Z,932.12
2017-01-13T06:41:38.370Z,932.15
2017-01-13T06:42:49.179Z,932.12
2017-01-13T06:43:59.990Z,932.1
2017-01-13T06:45:10.796Z,932.12
2017-01-13T06:46:21.598Z,932.09
2017-01-13T06:47:32.405Z,932.11
2017-01-13T06:48:43.210Z,932.1
2017-01-13T06:49:54.620Z,932.07
2017-01-13T06:51:05.425Z,932.1
2017-01-13T06:52:16.607Z,932.08
2017-01-13T06:53:27.415Z,932.1
2017-01-13T06:54:38.229Z,932.1
2017-01-13T06:55:49.035Z,932.12
2017-01-13T06:56:59.844Z,932.12
2017-01-13T06:58:10.998Z,932.16
2017-01-13T06:59:21.808Z,932.19
2017-01-13T07:00:32.612Z,932.22
2017-01-13T07:01:43.414Z,932.24
2017-01-13T07:02:54.219Z,932.24
2017-01-13T07:04:05.242Z,932.23
2017-01-13T07:05:16.050Z,932.26
2017-01-13T07:06:26.857Z,932.22
2017-01-13T07:07:37.663Z,932.21
2017-01-13T07:08:48.472Z,932.22
2017-01-13T07:09:59.530Z,932.26
2017-01-13T07:11:24.803Z,932.21
2017-01-13T07:12:35.606Z,932.21
2017-01-13T07:13:46.410Z,932.2
2017-01-13T07:14:57.219Z,932.16
2017-01-13T07:16:08.027Z,932.19
2017-01-13T07:17:18.831Z,932.2
2017-01-13T07:18:29.636Z,932.15
2017-01-13T07:19:40.439Z,932.14
2017-01-13T07:20:51.241Z,932.13
2017-01-13T07:22:02.046Z,932.17
2017-01-13T07:23:12.853Z,932.14
2017-01-13T07:24:23.668Z,932.12
2017-01-13T07:25:34.476Z,932.12
2017-01-13T07:26:45.510Z,932.12
2017-01-13T07:27:56.315Z,932.09
2017-01-13T07:29:07.128Z,932.06
2017-01-13T07:30:17.947Z,932.07
2017-01-13T07:32:54.226Z,932.05
2017-01-13T07:34:05.030Z,932.05
2017-01-13T07:35:15.843Z,932.01
2017-01-13T07:36:26.648Z,932.04
2017-01-13T07:37:52.277Z,932.08
2017-01-13T07:39:03.083Z,932.04
2017-01-13T07:40:13.889Z,932.1
2017-01-13T07:41:24.698Z,932.04
2017-01-13T07:42:35.508Z,932.05
2017-01-13T07:43:46.319Z,932.03
2017-01-13T07:44:57.145Z,932.02
2017-01-13T07:46:07.952Z,932.03
2017-01-13T07:47:18.761Z,931.99
2017-01-13T07:48:29.569Z,931.99
2017-01-13T07:49:40.377Z,932
2017-01-13T07:50:51.185Z,932.03
2017-01-13T07:52:02.601Z,932.02
2017-01-13T07:53:13.410Z,931.98
2017-01-13T07:54:24.419Z,931.97
2017-01-13T07:55:35.835Z,932
2017-01-13T07:56:46.642Z,931.97
2017-01-13T07:57:57.449Z,931.96
2017-01-13T07:59:08.265Z,931.98
2017-01-13T08:00:19.076Z,932
2017-01-13T08:01:29.891Z,932.01
2017-01-13T08:02:40.699Z,932
2017-01-13T08:03:51.506Z,932.06
2017-01-13T08:05:02.354Z,932.06
2017-01-13T08:06:13.161Z,932.05
2017-01-13T08:07:23.969Z,932.09
2017-01-13T08:08:34.777Z,932.11
2017-01-13T08:09:45.587Z,932.15
2017-01-13T08:10:56.391Z,932.11
2017-01-13T08:12:07.200Z,932.15
2017-01-13T08:13:18.038Z,932.14
2017-01-13T08:14:28.848Z,932.11
2017-01-13T08:15:39.706Z,932.14
2017-01-13T08:16:50.511Z,932.12
2017-01-13T08:18:01.324Z,932.12
2017-01-13T08:19:12.133Z,932.11
2017-01-13T08:20:22.944Z,932.14
2017-01-13T08:21:33.752Z,932.13
2017-01-13T08:22:44.582Z,932.16
2017-01-13T08:23:55.594Z,932.13
2017-01-13T08:25:06.399Z,932.12
2017-01-13T08:26:17.208Z,932.16
2017-01-13T08:27:28.012Z,932.17
2017-01-13T08:28:38.823Z,932.17
2017-01-13T08:29:49.828Z,932.2
2017-01-13T08:31:00.642Z,932.21
2017-01-13T08:32:11.449Z,932.23
2017-01-13T08:33:22.270Z,932.26
2017-01-13T08:34:33.081Z,932.26
2017-01-13T08:35:44.134Z,932.31
2017-01-13T08:36:54.946Z,932.31
2017-01-13T08:38:05.754Z,932.3
2017-01-13T08:39:16.558Z,932.33
2017-01-13T08:40:27.395Z,932.31
2017-01-13T08:41:38.213Z,932.33
2017-01-13T08:42:49.741Z,932.35
2017-01-13T08:44:00.094Z,932.34
2017-01-13T08:45:10.455Z,932.36
2017-01-13T08:46:20.811Z,932.34
2017-01-13T08:47:31.165Z,932.34
2017-01-13T08:48:41.528Z,932.34
2017-01-13T08:50:06.447Z,932.36
2017-01-13T08:51:16.799Z,932.37
2017-01-13T08:52:27.151Z,932.34
2017-01-13T08:53:37.703Z,932.36
2017-01-13T08:54:48.057Z,932.35
2017-01-13T08:55:58.406Z,932.43
2017-01-13T08:57:08.761Z,932.42
2017-01-13T08:58:19.118Z,932.45
2017-01-13T08:59:30.038Z,932.41
2017-01-13T09:00:40.392Z,932.45
2017-01-13T09:01:50.749Z,932.45
2017-01-13T09:03:01.105Z,932.47
2017-01-13T09:04:11.663Z,932.51
2017-01-13T09:05:22.019Z,932.51
2017-01-13T09:06:32.405Z,932.55
2017-01-13T09:09:07.678Z,932.54
2017-01-13T09:10:18.032Z,932.56
2017-01-13T09:11:28.384Z,932.56
2017-01-13T09:12:38.747Z,932.56
2017-01-13T09:13:49.109Z,932.57
2017-01-13T09:14:59.665Z,932.53
2017-01-13T09:16:10.022Z,932.52
2017-01-13T09:17:20.375Z,932.55
2017-01-13T09:18:31.297Z,932.55
2017-01-13T09:19:41.652Z,932.61
2017-01-13T09:20:52.206Z,932.59
2017-01-13T09:22:02.565Z,932.58
2017-01-13T09:23:12.929Z,932.6
2017-01-13T09:24:23.298Z,932.62
2017-01-13T09:25:33.655Z,932.6
2017-01-13T09:26:44.311Z,932.62
2017-01-13T09:27:54.670Z,932.61
2017-01-13T09:29:19.593Z,932.66
2017-01-13T09:30:29.953Z,932.65
2017-01-13T09:31:40.316Z,932.72
2017-01-13T09:32:50.676Z,932.75
2017-01-13T09:34:01.042Z,932.72
2017-01-13T09:35:11.409Z,932.73
2017-01-13T09:36:21.794Z,932.73
2017-01-13T09:37:32.453Z,932.7
2017-01-13T09:38:42.836Z,932.74
2017-01-13T09:39:53.224Z,932.69
2017-01-13T09:41:03.579Z,932.7
2017-01-13T09:42:13.941Z,932.72
2017-01-13T09:43:24.298Z,932.71
2017-01-13T09:44:34.652Z,932.74
2017-01-13T09:45:45.008Z,932.76
2017-01-13T09:46:55.357Z,932.78
2017-01-13T09:48:05.716Z,932.77
2017-01-13T09:49:16.067Z,932.79
2017-01-13T09:50:26.425Z,932.79
2017-01-13T09:51:36.781Z,932.78
2017-01-13T09:52:47.144Z,932.8
2017-01-13T09:53:57.501Z,932.79
2017-01-13T09:55:08.424Z,932.78
2017-01-13T09:56:18.781Z,932.8
2017-01-13T09:57:29.141Z,932.77
2017-01-13T09:58:39.498Z,932.78
2017-01-13T09:59:49.851Z,932.79
2017-01-13T10:01:00.207Z,932.77
2017-01-13T10:02:10.564Z,932.79
2017-01-13T10:03:21.496Z,932.78
2017-01-13T10:04:31.849Z,932.84
2017-01-13T10:05:42.203Z,932.81
2017-01-13T10:06:52.756Z,932.83
2017-01-13T10:08:03.117Z,932.87
2017-01-13T10:09:13.499Z,932.88
2017-01-13T10:10:23.855Z,932.87
2017-01-13T10:11:48.772Z,932.82
2017-01-13T10:12:59.129Z,932.89
2017-01-13T10:14:09.500Z,932.91
2017-01-13T10:15:19.855Z,932.9
2017-01-13T10:19:20.070Z,932.89
2017-01-13T10:20:30.425Z,932.87
2017-01-13T10:21:40.775Z,932.88
2017-01-13T10:22:51.327Z,932.87
2017-01-13T10:24:01.684Z,932.87
2017-01-13T10:25:12.056Z,932.86
2017-01-13T10:26:22.444Z,932.88
2017-01-13T10:27:32.805Z,932.89
2017-01-13T10:28:43.357Z,932.88
2017-01-13T10:29:53.706Z,932.87
2017-01-13T10:31:04.061Z,932.87
2017-01-13T10:32:14.414Z,932.87
2017-01-13T10:33:24.767Z,932.9
2017-01-13T10:34:35.440Z,932.89
2017-01-13T10:35:46.354Z,932.95
2017-01-13T10:36:56.718Z,932.95
2017-01-13T10:38:07.072Z,932.94
2017-01-13T10:39:17.425Z,932.97
2017-01-13T10:40:27.984Z,932.99
2017-01-13T10:41:52.910Z,933.01
2017-01-13T10:43:03.273Z,933.01
2017-01-13T10:44:13.633Z,932.97
2017-01-13T10:45:23.984Z,932.98
2017-01-13T10:46:34.643Z,933.01
2017-01-13T10:47:59.563Z,933.01
2017-01-13T10:49:09.918Z,933.01
2017-01-13T10:50:20.839Z,933
2017-01-13T10:51:31.194Z,932.99
2017-01-13T10:52:41.548Z,933.01
2017-01-13T10:53:51.908Z,933.04
2017-01-13T10:55:02.272Z,933.04
2017-01-13T10:56:12.831Z,933.02
2017-01-13T10:57:23.199Z,933.01
2017-01-13T10:58:33.557Z,933.04
2017-01-13T10:59:43.920Z,933.07
2017-01-13T11:00:54.273Z,933.09
2017-01-13T11:02:19.189Z,933.07
2017-01-13T11:03:30.697Z,933.08
2017-01-13T11:04:41.060Z,933.11
2017-01-13T11:05:51.980Z,933.12
2017-01-13T11:07:02.342Z,933.1
2017-01-13T11:08:12.711Z,933.11
2017-01-13T11:09:23.156Z,933.11
2017-01-13T11:10:35.022Z,933.13
2017-01-13T11:11:45.467Z,933.1
2017-01-13T11:12:55.864Z,933.14
2017-01-13T11:14:06.407Z,933.14
2017-01-13T11:15:16.764Z,933.19
2017-01-13T11:16:27.131Z,933.19
2017-01-13T11:17:37.488Z,933.23
2017-01-13T11:18:47.946Z,933.21
2017-01-13T11:19:58.308Z,933.23
2017-01-13T11:21:08.672Z,933.25
2017-01-13T11:22:19.034Z,933.27
2017-01-13T11:23:29.402Z,933.26
2017-01-13T11:24:39.760Z,933.3
2017-01-13T11:25:50.122Z,933.28
2017-01-13T11:27:00.479Z,933.29
2017-01-13T11:28:10.838Z,933.29
2017-01-13T11:29:21.200Z,933.26
2017-01-13T11:30:31.563Z,933.27
2017-01-13T11:31:41.920Z,933.24
2017-01-13T11:32:52.280Z,933.26
2017-01-13T11:34:17.199Z,933.25
2017-01-13T11:35:27.553Z,933.28
